»·PEaware :: N728CS KHND-KEGE

N728CS :: KHND-KEGE

FLIGHT INFORMATION

Flight Status: Arrived
Operator: Privately registered:
United States
More flights under this callsign
Pilot: Chandler S. (807)
Aircraft: BEECH AIRCRAFT PREMIER
(PRM1)
More flights by this aircraft type
Origin: KHND Henderson
United States
Destination: KEGE Eagle Co Regl
United States
More flights between these airports :: More routes between these airports
Route: ACSIN6 VERKN HVE JNC RIL RLG
File this flight plan on PilotEdge
Remarks:
Altitude:
(Current/Filed)
41,000ft
Speed:
(Current/Filed)
400kts
Departed: 16-Jul-19 12:41 PM
Arrived: 16-Jul-19 02:07 PM
Distance/Time
Traveled:
447nm/1:26
Distance/Time
To Go:
Arrived

Flight Plot

Page will automatically refresh every two minutes.

Flight plan parsing failed; only flown route is shown


Map Options




Map Legend


Flown Route
Filed Route
Departure Airport
Arrival Airport
Navaid (VOR, NDB)
Fix

Horizontal Profiles

Position Reports

Time Latitude Longitude Heading Altitude Ground
Speed
16-Jul-19 12:24 35.978448 -115.137372 180 2387ft 0kts
16-Jul-19 12:25 35.978448 -115.137372 180 2387ft 0kts
16-Jul-19 12:26 35.978448 -115.137372 180 2387ft 0kts
16-Jul-19 12:27 35.978448 -115.137372 180 2387ft 0kts
16-Jul-19 12:28 35.978448 -115.137372 180 2387ft 0kts
16-Jul-19 12:29 35.978448 -115.137372 180 2387ft 0kts
16-Jul-19 12:30 35.978448 -115.137372 180 2387ft 0kts
16-Jul-19 12:31 35.978448 -115.137372 180 2387ft 0kts
16-Jul-19 12:32 35.978448 -115.137372 180 2387ft 0kts
16-Jul-19 12:33 35.978448 -115.137372 180 2387ft 0kts
16-Jul-19 12:34 35.978448 -115.137372 180 2387ft 0kts
16-Jul-19 12:35 35.978448 -115.137372 180 2387ft 0kts
16-Jul-19 12:35 35.979693 -115.136403 4 2387ft 11kts
16-Jul-19 12:37 35.980809 -115.136096 66 2387ft 0kts
16-Jul-19 12:38 35.980809 -115.136096 66 2387ft 0kts
16-Jul-19 12:38 35.980809 -115.136096 66 2387ft 0kts
16-Jul-19 12:39 35.980830 -115.135417 106 2387ft 6kts
16-Jul-19 12:41 35.947575 -115.136268 198 3848ft 162kts
16-Jul-19 12:41 35.911237 -115.161437 197 6300ft 196kts
16-Jul-19 12:42 35.851875 -115.153366 154 9222ft 234kts
16-Jul-19 12:44 35.812980 -115.069609 117 12902ft 248kts
16-Jul-19 12:44 35.789922 -114.998818 116 14514ft 273kts
16-Jul-19 12:45 35.786130 -114.901277 90 16707ft 292kts
16-Jul-19 12:47 35.796327 -114.778953 74 18836ft 316kts
16-Jul-19 12:47 35.830068 -114.688547 66 18881ft 370kts
16-Jul-19 12:48 35.876245 -114.575784 51 20625ft 367kts
16-Jul-19 12:49 35.958508 -114.505059 29 22566ft 356kts
16-Jul-19 12:50 36.044976 -114.442013 29 23872ft 364kts
16-Jul-19 12:51 36.120323 -114.359123 51 25500ft 359kts
16-Jul-19 12:52 36.183295 -114.260567 54 27172ft 353kts
16-Jul-19 12:53 36.224840 -114.150041 69 28740ft 346kts
16-Jul-19 12:54 36.260793 -114.038692 69 29955ft 352kts
16-Jul-19 12:55 36.296866 -113.927447 69 31264ft 350kts
16-Jul-19 12:56 36.333391 -113.814424 69 32284ft 356kts
16-Jul-19 12:57 36.366570 -113.699283 73 33462ft 353kts
16-Jul-19 12:58 36.396107 -113.585240 73 34839ft 343kts
16-Jul-19 12:59 36.426219 -113.470337 72 35778ft 347kts
16-Jul-19 13:00 36.455712 -113.357470 73 36908ft 342kts
16-Jul-19 13:01 36.494678 -113.250257 47 37666ft 345kts
16-Jul-19 13:02 36.560866 -113.164353 44 38492ft 343kts
16-Jul-19 13:03 36.626387 -113.079004 45 39295ft 339kts
16-Jul-19 13:04 36.690827 -112.994525 45 40259ft 326kts
16-Jul-19 13:05 36.753295 -112.912440 45 40926ft 320kts
16-Jul-19 13:06 36.814967 -112.831199 45 41107ft 331kts
16-Jul-19 13:07 36.879897 -112.745420 45 41109ft 348kts
16-Jul-19 13:08 36.947628 -112.655689 45 41112ft 365kts
16-Jul-19 13:09 37.018707 -112.561259 45 41115ft 381kts
16-Jul-19 13:10 37.092873 -112.462432 45 41119ft 398kts
16-Jul-19 13:11 37.169904 -112.359469 45 41115ft 413kts
16-Jul-19 13:12 37.250918 -112.250817 45 41141ft 424kts
16-Jul-19 13:13 37.332188 -112.141459 45 41260ft 432kts
16-Jul-19 13:14 37.415430 -112.029921 44 41311ft 441kts
16-Jul-19 13:15 37.501558 -111.918121 44 41313ft 451kts
16-Jul-19 13:16 37.589237 -111.803543 44 41311ft 459kts
16-Jul-19 13:17 37.678465 -111.686339 44 41316ft 466kts
16-Jul-19 13:18 37.768382 -111.567779 44 41317ft 471kts
16-Jul-19 13:19 37.859348 -111.447381 44 41319ft 475kts
16-Jul-19 13:20 37.952421 -111.323713 45 41312ft 473kts
16-Jul-19 13:21 38.042718 -111.203290 45 41312ft 470kts
16-Jul-19 13:22 38.132690 -111.082833 45 41281ft 468kts
16-Jul-19 13:23 38.221729 -110.963164 45 41135ft 468kts
16-Jul-19 13:24 38.310935 -110.842810 45 41010ft 466kts
16-Jul-19 13:25 38.399271 -110.723117 46 41009ft 463kts
16-Jul-19 13:26 38.459519 -110.579830 67 41011ft 460kts
16-Jul-19 13:27 38.510203 -110.430499 67 41013ft 459kts
16-Jul-19 13:28 38.561391 -110.281171 67 41007ft 458kts
16-Jul-19 13:29 38.612370 -110.132279 67 41008ft 458kts
16-Jul-19 13:30 38.664224 -109.980066 67 41010ft 458kts
16-Jul-19 13:31 38.715392 -109.828947 67 41011ft 459kts
16-Jul-19 13:32 38.766018 -109.678851 67 41013ft 460kts
16-Jul-19 13:33 38.816420 -109.528567 67 41014ft 461kts
16-Jul-19 13:34 38.866910 -109.377195 67 41016ft 461kts
16-Jul-19 13:35 38.917674 -109.224208 68 41008ft 462kts
16-Jul-19 13:36 38.967928 -109.071929 68 41035ft 464kts
16-Jul-19 13:37 39.018876 -108.916642 67 39616ft 480kts
16-Jul-19 13:38 39.074220 -108.759500 59 37921ft 485kts
16-Jul-19 13:39 39.141061 -108.608073 59 36341ft 483kts
16-Jul-19 13:40 39.207175 -108.458204 59 34759ft 479kts
16-Jul-19 13:41 39.270490 -108.313916 60 33179ft 459kts
16-Jul-19 13:42 39.331309 -108.174666 60 31553ft 440kts
16-Jul-19 13:43 39.390283 -108.039043 60 29927ft 425kts
16-Jul-19 13:44 39.447704 -107.906413 60 28421ft 420kts
16-Jul-19 13:45 39.504471 -107.774725 60 26922ft 415kts
16-Jul-19 13:46 39.558074 -107.643713 64 25440ft 409kts
16-Jul-19 13:47 39.611073 -107.515061 48 24161ft 399kts
16-Jul-19 13:48 39.680767 -107.406550 48 24169ft 385kts
16-Jul-19 13:49 39.749638 -107.299668 49 24212ft 386kts
16-Jul-19 13:50 39.811647 -107.203645 48 24229ft 386kts
16-Jul-19 13:51 39.881985 -107.094871 48 23320ft 402kts
16-Jul-19 13:52 39.954541 -106.982837 48 21839ft 405kts
16-Jul-19 13:53 40.024163 -106.872258 48 19955ft 377kts
16-Jul-19 13:54 40.086613 -106.766505 62 17843ft 362kts
16-Jul-19 13:55 40.072130 -106.643568 115 15783ft 346kts
16-Jul-19 13:56 40.032154 -106.531670 125 14034ft 324kts
16-Jul-19 13:57 39.965976 -106.473842 175 14047ft 264kts
16-Jul-19 13:58 39.897385 -106.486940 202 14047ft 248kts
16-Jul-19 13:59 39.830902 -106.514921 202 14035ft 255kts
16-Jul-19 14:00 39.762689 -106.543570 202 14025ft 257kts
16-Jul-19 14:01 39.696804 -106.583383 236 12930ft 263kts
16-Jul-19 14:02 39.677838 -106.672642 260 11853ft 254kts
16-Jul-19 14:03 39.665327 -106.759499 259 10439ft 216kts
16-Jul-19 14:04 39.653346 -106.827791 259 8854ft 182kts
16-Jul-19 14:05 39.646336 -106.883433 259 7067ft 136kts
16-Jul-19 14:06 39.641972 -106.922178 251 6547ft 23kts
16-Jul-19 14:07 39.641520 -106.918420 81 6547ft 17kts
16-Jul-19 14:08 39.642160 -106.912314 103 6547ft 15kts
16-Jul-19 14:09 39.641169 -106.911177 142 6547ft 0kts
16-Jul-19 14:10 39.641169 -106.911177 142 6547ft 0kts
16-Jul-19 14:11 39.641169 -106.911177 142 6547ft 0kts

Navigation Log

Ident Type
Flight plan parsing failed, navigation log unavailable